Time;durP1;ratioP1;P1;durP2;ratioP2;P2;SDS_P1;SDS_P2;PMS_P1;PMS_P2;Temp;Humidity;BMP_temperature;BMP_pressure;BME280_temperature;BME280_humidity;BME280_pressure;Samples;Min_cycle;Max_cycle;Signal;HPM_P1;HPM_P2
2021/10/20 00:00:21;;;;;;;2.85;2.63;;;20.80;50.30;;;24.58;33.83;100618.03;5093494;28;20055;-8
2021/10/20 00:02:49;;;;;;;2.53;2.30;;;20.80;50.30;;;24.60;33.79;100618.75;5093832;28;20052;-8
2021/10/20 00:05:17;;;;;;;3.20;2.80;;;20.80;50.30;;;24.59;33.73;100614.34;5093760;28;20043;-9
2021/10/20 00:07:44;;;;;;;2.65;2.45;;;20.80;50.30;;;24.60;33.72;100616.06;5093544;28;20044;-8
2021/10/20 00:10:10;;;;;;;2.90;2.50;;;20.80;50.30;;;24.60;33.84;100608.88;5093180;28;20052;-8
2021/10/20 00:12:36;;;;;;;2.33;2.13;;;20.80;50.30;;;24.58;33.88;100610.00;5093655;28;20517;-8
2021/10/20 00:15:05;;;;;;;2.90;2.50;;;20.90;50.30;;;24.59;33.70;100609.00;5093730;28;20535;-8
2021/10/20 00:17:32;;;;;;;2.50;2.15;;;20.80;50.30;;;24.56;33.82;100591.41;5093493;28;20047;-8
2021/10/20 00:20:05;;;;;;;2.83;2.50;;;20.80;50.30;;;24.56;33.74;100602.09;5093348;28;20052;-9
2021/10/20 00:22:32;;;;;;;3.55;2.28;;;20.80;50.30;;;24.58;33.86;100599.31;5093458;28;20044;-9
2021/10/20 00:24:58;;;;;;;2.55;2.20;;;20.80;50.30;;;24.57;33.96;100593.13;5093425;28;20063;-8
2021/10/20 00:27:24;;;;;;;2.53;2.33;;;20.80;50.40;;;24.60;33.71;100586.66;5093306;28;20040;-9
2021/10/20 00:29:49;;;;;;;4.28;2.50;;;20.80;50.40;;;24.58;33.90;100581.44;5093346;28;20100;-9
2021/10/20 00:32:15;;;;;;;2.42;2.22;;;20.80;50.40;;;24.59;33.83;100577.81;5093274;28;20531;-9
2021/10/20 00:34:41;;;;;;;3.38;2.50;;;20.80;50.40;;;24.59;33.90;100587.63;5093308;28;20063;-9
2021/10/20 00:37:07;;;;;;;2.85;2.60;;;20.80;50.30;;;24.59;33.77;100585.81;5093534;28;20048;-9
2021/10/20 00:39:32;;;;;;;2.40;2.20;;;20.80;50.40;;;24.58;33.81;100576.09;5093220;28;20075;-9
2021/10/20 00:41:58;;;;;;;2.65;2.45;;;20.80;50.50;;;24.59;33.96;100572.44;5075326;28;20048;-8
2021/10/20 00:44:24;;;;;;;3.10;2.28;;;20.80;50.50;;;24.58;33.96;100565.41;5093247;28;20040;-8
2021/10/20 00:46:50;;;;;;;2.42;2.22;;;20.80;50.50;;;24.57;33.75;100561.03;5093141;28;20480;-9
2021/10/20 00:49:17;;;;;;;2.60;2.40;;;20.80;50.50;;;24.59;33.76;100560.88;5093083;28;20051;-9
2021/10/20 00:51:42;;;;;;;2.55;2.28;;;20.80;50.60;;;24.56;33.96;100551.31;5093319;28;20048;-9
2021/10/20 00:54:08;;;;;;;2.80;2.60;;;20.80;50.50;;;24.58;33.80;100554.69;5092966;28;20449;-9
2021/10/20 00:56:35;;;;;;;2.20;2.00;;;20.80;50.60;;;24.58;33.92;100540.50;5092910;28;20131;-8
2021/10/20 00:59:01;;;;;;;2.60;2.40;;;20.80;50.50;;;24.56;33.92;100537.13;5073814;28;20139;-9
2021/10/20 01:01:27;;;;;;;3.22;2.72;;;20.80;50.50;;;24.55;33.89;100538.06;5074871;28;20089;-8
2021/10/20 01:03:54;;;;;;;2.72;2.47;;;20.80;50.50;;;24.55;33.86;100535.41;5093112;28;20052;-8
2021/10/20 01:06:19;;;;;;;2.88;2.58;;;20.80;50.50;;;24.58;34.05;100529.81;5092859;28;20048;-8
2021/10/20 01:08:45;;;;;;;2.67;2.47;;;20.80;50.60;;;24.57;33.90;100526.28;5092833;28;20395;-9
2021/10/20 01:11:11;;;;;;;2.58;2.38;;;20.80;50.60;;;24.55;33.88;100522.03;5075127;28;20055;-8
2021/10/20 01:13:37;;;;;;;3.10;2.67;;;20.80;51.10;;;24.55;34.07;100522.03;5093218;28;20043;-9
2021/10/20 01:16:03;;;;;;;2.60;2.40;;;20.80;50.50;;;24.55;34.08;100520.19;5091505;28;20052;-8
2021/10/20 01:18:31;;;;;;;2.83;2.63;;;20.80;50.60;;;24.55;33.94;100500.66;5092656;28;20126;-8
2021/10/20 01:21:00;;;;;;;3.28;2.88;;;20.80;50.70;;;24.57;34.06;100504.03;5092541;28;20040;-8
2021/10/20 01:23:28;;;;;;;2.35;2.15;;;20.80;50.70;;;24.56;33.95;100497.00;5092523;28;20052;-8
2021/10/20 01:25:56;;;;;;;2.75;2.53;;;20.80;50.70;;;24.92;33.66;100495.72;5092613;28;20079;-8
2021/10/20 01:28:23;;;;;;;2.63;2.42;;;20.80;50.70;;;24.55;33.87;100484.63;5092587;28;20056;-8
2021/10/20 01:30:50;;;;;;;2.53;2.33;;;20.80;50.80;;;24.51;34.05;100478.66;5092435;28;20048;-8
2021/10/20 01:33:16;;;;;;;2.60;2.33;;;20.80;50.80;;;24.55;34.00;100488.13;5092589;28;20369;-8
2021/10/20 01:35:41;;;;;;;2.50;2.30;;;20.80;50.70;;;24.56;33.84;100479.16;5092666;28;20105;-9
2021/10/20 01:38:07;;;;;;;2.95;2.67;;;20.80;50.80;;;24.54;33.93;100480.19;5092423;28;20044;-9
2021/10/20 01:40:33;;;;;;;2.78;2.58;;;20.80;50.80;;;24.55;33.85;100485.44;5092083;28;20080;-8
2021/10/20 01:42:58;;;;;;;2.92;2.63;;;20.80;50.70;;;24.55;34.15;100477.44;5092638;28;20924;-7
2021/10/20 01:45:24;;;;;;;2.60;2.40;;;20.80;50.80;;;24.54;34.05;100483.75;5092061;28;20075;-7
2021/10/20 01:47:50;;;;;;;2.97;2.60;;;20.80;51.30;;;24.55;34.02;100476.59;5092880;28;20078;-6
2021/10/20 01:50:16;;;;;;;3.45;2.58;;;20.80;50.90;;;24.55;34.17;100472.09;5092549;28;20055;-6
2021/10/20 01:52:42;;;;;;;2.60;2.40;;;20.80;50.90;;;24.55;33.94;100471.25;5092593;28;20101;-6
2021/10/20 01:55:11;;;;;;;2.70;2.50;;;20.80;50.80;;;24.51;34.07;100470.63;5092180;28;20405;-7
2021/10/20 01:57:37;;;;;;;2.35;2.15;;;20.80;50.90;;;24.52;33.99;100464.28;5092132;28;20036;-6
2021/10/20 02:00:05;;;;;;;2.42;2.22;;;20.70;50.80;;;24.53;34.09;100465.16;5092154;28;20059;-6
2021/10/20 02:02:38;;;;;;;2.90;2.65;;;20.80;50.90;;;24.55;34.19;100465.91;5092268;28;20052;-6
2021/10/20 02:05:07;;;;;;;2.67;2.47;;;20.80;50.90;;;24.54;34.29;100453.47;5092647;28;20067;-6
2021/10/20 02:07:32;;;;;;;3.60;2.67;;;20.70;50.90;;;24.52;34.01;100445.59;5091879;28;20052;-6
2021/10/20 02:09:58;;;;;;;2.63;2.42;;;20.70;50.90;;;24.54;34.10;100451.66;5092083;28;20094;-6
2021/10/20 02:12:24;;;;;;;2.40;2.20;;;20.70;50.90;;;24.51;34.26;100446.56;5095982;28;20106;-6
2021/10/20 02:14:49;;;;;;;3.45;2.60;;;20.70;50.90;;;24.51;34.05;100446.56;5095507;28;20059;-6
2021/10/20 02:17:15;;;;;;;2.35;2.15;;;20.70;50.90;;;24.52;34.16;100434.88;5094964;28;20078;-7
2021/10/20 02:19:41;;;;;;;2.40;2.20;;;20.80;50.90;;;24.55;34.17;100436.50;5095308;28;20181;-7
2021/10/20 02:22:07;;;;;;;3.17;2.80;;;20.80;51.00;;;24.54;34.25;100424.06;5095413;28;20388;-7
2021/10/20 02:24:33;;;;;;;2.78;2.58;;;20.80;50.90;;;24.53;34.19;100417.06;5095345;28;20093;-6
2021/10/20 02:27:00;;;;;;;2.70;2.50;;;20.70;50.90;;;24.53;34.17;100417.88;5095267;28;20052;-6
2021/10/20 02:29:25;;;;;;;2.70;2.50;;;20.80;51.00;;;24.53;34.32;100425.91;5095254;28;20052;-6
2021/10/20 02:31:51;;;;;;;2.65;2.38;;;20.70;51.00;;;24.49;34.19;100408.44;5095227;28;20126;-6
2021/10/20 02:34:19;;;;;;;2.60;2.40;;;20.70;51.00;;;24.52;34.16;100413.50;5095242;28;20079;-6
2021/10/20 02:36:46;;;;;;;2.45;2.25;;;20.70;51.00;;;24.53;34.16;100401.84;5095346;28;20044;-6
2021/10/20 02:39:12;;;;;;;2.78;2.58;;;20.70;51.00;;;24.51;34.19;100406.50;5094898;28;20120;-6
2021/10/20 02:41:39;;;;;;;2.65;2.40;;;20.70;51.00;;;24.49;34.22;100397.75;5095352;28;20074;-6
2021/10/20 02:44:06;;;;;;;2.70;2.50;;;20.70;51.00;;;24.50;34.17;100396.75;5095037;28;20048;-6
2021/10/20 02:46:33;;;;;;;3.25;2.85;;;20.70;51.00;;;24.49;34.18;100395.09;5094970;28;20043;-6
2021/10/20 02:48:59;;;;;;;2.75;2.50;;;20.70;51.00;;;24.51;34.29;100401.13;5094924;28;20502;-6
2021/10/20 02:51:24;;;;;;;3.13;2.83;;;20.70;51.00;;;24.50;34.37;100394.09;5094878;28;20051;-6
2021/10/20 02:53:51;;;;;;;2.58;2.38;;;20.70;51.00;;;24.49;34.33;100383.53;5095181;28;20471;-6
2021/10/20 02:56:18;;;;;;;3.00;2.70;;;20.80;51.00;;;24.52;34.24;100389.44;5076579;28;20131;-6
2021/10/20 02:58:44;;;;;;;3.10;2.80;;;20.70;51.10;;;24.52;34.26;100384.09;5094820;28;20131;-7
2021/10/20 03:01:10;;;;;;;3.05;2.75;;;20.70;51.00;;;24.50;34.17;100383.41;5094786;28;20052;-6
2021/10/20 03:03:36;;;;;;;2.78;2.55;;;20.80;51.10;;;24.48;34.35;100374.66;5094752;28;20403;-6
2021/10/20 03:06:01;;;;;;;3.08;2.47;;;20.70;51.00;;;24.52;34.15;100375.25;5094990;28;20073;-6
2021/10/20 03:08:27;;;;;;;3.03;2.78;;;20.70;51.00;;;24.51;34.39;100387.78;5094524;28;20059;-6
2021/10/20 03:10:53;;;;;;;2.90;2.70;;;20.70;51.00;;;24.52;34.14;100377.94;5094510;28;20044;-7
2021/10/20 03:13:20;;;;;;;2.92;2.65;;;20.70;51.10;;;24.51;34.25;100381.59;5094596;28;20514;-6
2021/10/20 03:15:45;;;;;;;3.28;3.00;;;20.70;51.40;;;24.50;34.52;100377.22;5094388;28;20052;-6
2021/10/20 03:18:11;;;;;;;3.47;3.08;;;20.60;51.40;;;24.49;34.39;100379.06;5094248;28;20122;-7
2021/10/20 03:20:37;;;;;;;3.22;2.95;;;20.50;51.70;;;24.51;34.28;100381.59;5094612;28;20105;-6
2021/10/20 03:23:03;;;;;;;3.05;2.75;;;20.60;51.60;;;24.50;34.36;100372.72;5093442;28;20050;-6
2021/10/20 03:25:29;;;;;;;3.38;2.97;;;20.70;51.50;;;24.53;34.35;100375.13;5094256;28;20059;-6
2021/10/20 03:27:54;;;;;;;3.03;2.70;;;20.70;51.50;;;24.54;34.41;100368.81;5094615;28;20145;-7
2021/10/20 03:30:22;;;;;;;3.08;2.78;;;20.70;51.50;;;24.52;34.54;100367.25;5094284;28;20048;-7
2021/10/20 03:32:48;;;;;;;3.25;2.75;;;20.70;51.60;;;24.53;34.47;100367.09;5094710;28;20084;-6
2021/10/20 03:35:16;;;;;;;3.67;3.08;;;20.70;51.50;;;24.53;34.52;100369.78;5092858;28;20051;-6
2021/10/20 03:37:42;;;;;;;3.40;3.10;;;20.80;51.40;;;24.57;34.52;100365.91;5094244;28;20178;-6
2021/10/20 03:40:09;;;;;;;3.10;2.80;;;20.80;51.40;;;24.57;34.52;100360.56;5094768;28;20076;-6
2021/10/20 03:42:36;;;;;;;3.92;2.97;;;20.80;51.50;;;24.60;34.64;100352.25;5094057;28;20040;-6
2021/10/20 03:45:03;;;;;;;3.17;2.58;;;20.80;51.50;;;24.62;34.53;100337.94;5094574;28;20454;-6
2021/10/20 03:47:29;;;;;;;3.65;3.10;;;20.80;51.60;;;24.60;34.57;100344.25;5094206;28;20054;-7
2021/10/20 03:49:54;;;;;;;3.00;2.70;;;20.80;51.60;;;24.63;34.65;100331.63;5094550;28;20052;-6
2021/10/20 03:52:20;;;;;;;3.00;2.70;;;20.90;51.60;;;24.63;34.62;100326.28;5093998;28;20055;-6
2021/10/20 03:54:46;;;;;;;3.42;3.00;;;20.90;51.40;;;24.66;34.65;100323.31;5094211;28;20048;-7
2021/10/20 03:57:12;;;;;;;2.90;2.65;;;20.90;51.40;;;24.68;34.68;100324.88;5094017;28;20408;-7
2021/10/20 03:59:38;;;;;;;3.20;2.90;;;21.00;51.40;;;24.70;34.68;100316.75;5094278;28;20087;-7
2021/10/20 04:02:04;;;;;;;2.50;2.30;;;21.00;51.40;;;24.70;34.64;100311.38;5094142;28;20044;-6
2021/10/20 04:04:30;;;;;;;3.42;3.13;;;21.00;51.30;;;24.72;34.52;100307.59;5093783;28;20066;-6
2021/10/20 04:06:56;;;;;;;3.28;2.97;;;21.00;51.30;;;24.71;34.59;100300.56;5093767;28;20044;-6
2021/10/20 04:09:21;;;;;;;3.00;2.60;;;21.10;51.40;;;24.74;34.51;100294.97;5093502;28;20403;-6
2021/10/20 04:11:47;;;;;;;3.63;2.50;;;21.00;51.30;;;24.74;34.71;100297.63;5092369;28;20070;-7
2021/10/20 04:14:13;;;;;;;3.42;2.40;;;21.00;51.40;;;24.76;34.65;100289.47;5093661;28;20052;-6
2021/10/20 04:16:39;;;;;;;3.25;2.95;;;21.00;51.30;;;24.77;34.69;100289.34;5092488;28;20052;-7
2021/10/20 04:19:05;;;;;;;2.88;2.65;;;21.10;51.30;;;24.77;34.61;100278.66;5093520;28;20048;-6
2021/10/20 04:21:30;;;;;;;3.13;2.83;;;21.00;51.30;;;24.79;34.58;100286.50;5093520;28;20494;-6
2021/10/20 04:23:56;;;;;;;3.17;2.88;;;21.00;51.30;;;24.77;34.71;100283.13;5093446;28;20048;-7
2021/10/20 04:26:22;;;;;;;3.85;2.83;;;21.10;51.30;;;24.79;34.75;100278.50;5093981;28;20109;-6
2021/10/20 04:28:48;;;;;;;3.10;2.80;;;21.10;51.30;;;24.80;34.67;100280.19;5093387;28;20040;-6
2021/10/20 04:31:14;;;;;;;3.25;2.70;;;21.10;51.40;;;24.80;34.72;100271.34;5092146;28;20097;-7
2021/10/20 04:33:40;;;;;;;2.67;2.47;;;21.10;51.30;;;24.82;34.84;100272.03;5093546;28;20044;-7
2021/10/20 04:36:06;;;;;;;5.80;2.70;;;21.10;51.50;;;24.80;34.58;100266.81;5093265;28;20560;-6
2021/10/20 04:38:33;;;;;;;2.50;2.30;;;21.10;51.50;;;24.81;34.77;100265.00;5093274;28;20040;-7
2021/10/20 04:41:00;;;;;;;3.00;2.80;;;21.10;51.50;;;24.82;34.73;100264.84;5093136;28;20048;-7
2021/10/20 04:43:26;;;;;;;3.17;2.72;;;21.10;51.50;;;24.78;34.90;100256.25;5093180;28;20043;-6
2021/10/20 04:45:53;;;;;;;3.35;2.60;;;21.10;51.50;;;24.84;34.64;100270.06;5093190;28;20040;-6
2021/10/20 04:48:22;;;;;;;2.92;2.63;;;21.10;51.50;;;24.81;34.84;100259.66;5093371;28;20071;-6
2021/10/20 04:50:48;;;;;;;3.25;2.90;;;21.10;51.60;;;24.83;34.86;100258.53;5092901;28;20048;-6
2021/10/20 04:53:15;;;;;;;3.25;2.95;;;21.10;51.60;;;24.83;34.64;100261.22;5088924;28;20044;-6
2021/10/20 04:55:40;;;;;;;3.00;2.70;;;21.10;51.60;;;24.82;34.80;100262.19;5092742;28;20381;-6
2021/10/20 04:58:09;;;;;;;3.10;2.80;;;21.10;51.60;;;24.82;34.61;100254.16;5092758;28;20052;-6
2021/10/20 05:00:36;;;;;;;2.78;2.58;;;21.10;51.60;;;24.80;34.59;100245.44;5092802;28;20048;-6
2021/10/20 05:03:03;;;;;;;3.50;3.20;;;21.10;51.60;;;24.82;34.67;100239.97;5092800;28;20079;-6
2021/10/20 05:05:29;;;;;;;3.55;3.25;;;21.10;51.60;;;-147.20;34.72;74490.41;5092673;28;20465;-7
2021/10/20 05:07:58;;;;;;;3.42;3.05;;;21.10;51.60;;;24.85;34.86;100220.97;5092661;28;20071;-6
2021/10/20 05:10:28;;;;;;;3.03;2.60;;;21.10;51.60;;;24.81;34.89;100200.81;5092566;28;20618;-6
2021/10/20 05:12:56;;;;;;;4.63;3.22;;;21.10;51.60;;;24.84;34.88;100217.47;5092687;28;20135;-7
2021/10/20 05:15:22;;;;;;;3.53;3.22;;;21.00;51.60;;;24.83;34.51;100220.28;5092974;28;20054;-7
2021/10/20 05:17:48;;;;;;;4.35;3.00;;;21.10;51.70;;;24.82;34.88;100194.50;5092738;28;20189;-6
2021/10/20 05:20:16;;;;;;;4.32;2.83;;;21.00;51.70;;;24.81;34.92;100198.16;5092519;28;20052;-6
2021/10/20 05:22:42;;;;;;;3.20;2.90;;;21.00;51.70;;;24.81;34.74;100199.00;5093255;28;20098;-7
2021/10/20 05:25:11;;;;;;;3.50;2.83;;;21.10;51.80;;;24.82;34.68;100197.19;5092615;28;20044;-9
2021/10/20 05:27:37;;;;;;;2.92;2.72;;;21.00;51.70;;;24.82;34.78;100194.50;5092609;28;20381;-9
2021/10/20 05:30:04;;;;;;;3.25;2.95;;;21.10;51.70;;;24.83;34.91;100185.50;5092324;28;20055;-9
2021/10/20 05:32:30;;;;;;;3.55;2.72;;;21.00;51.80;;;24.82;34.80;100181.97;5092442;28;20052;-9
2021/10/20 05:34:56;;;;;;;3.20;2.90;;;21.00;51.70;;;24.82;34.80;100178.47;5092702;28;20048;-9
2021/10/20 05:37:22;;;;;;;2.95;2.72;;;21.10;51.70;;;24.82;34.71;100168.59;5092699;28;20105;-9
2021/10/20 05:39:49;;;;;;;3.28;2.72;;;21.10;51.70;;;24.83;34.73;100166.78;5092906;28;20044;-9
2021/10/20 05:42:15;;;;;;;3.35;3.03;;;21.00;51.70;;;24.82;34.69;100165.94;5092481;28;20078;-9
2021/10/20 05:44:41;;;;;;;2.90;2.65;;;21.00;51.90;;;24.83;34.76;100159.59;5092339;28;20089;-9
2021/10/20 05:47:08;;;;;;;3.15;2.70;;;21.00;51.80;;;24.85;34.65;100159.47;5095478;28;20055;-9
2021/10/20 05:49:33;;;;;;;2.97;2.67;;;21.00;51.70;;;24.84;34.59;100161.31;5077541;28;20048;-9
2021/10/20 05:51:59;;;;;;;2.60;2.40;;;21.10;51.70;;;24.84;34.75;100152.44;5095998;28;20374;-9
2021/10/20 05:54:25;;;;;;;3.03;2.80;;;21.10;51.70;;;24.82;34.94;100135.69;5095879;28;20052;-9
2021/10/20 05:56:50;;;;;;;3.50;3.05;;;21.10;51.70;;;24.86;34.89;100142.44;5095648;28;20048;-9
2021/10/20 05:59:21;;;;;;;4.60;2.80;;;21.00;51.80;;;24.84;34.75;100139.91;5096054;28;20442;-9
2021/10/20 06:01:47;;;;;;;3.37;2.63;;;21.00;51.80;;;24.87;34.84;100141.47;5095738;28;20127;-9
2021/10/20 06:04:13;;;;;;;3.00;2.72;;;21.00;51.70;;;24.86;34.89;100142.44;5095633;28;20297;-8
2021/10/20 06:06:39;;;;;;;4.53;2.97;;;21.10;51.80;;;24.86;34.84;100139.75;5095552;28;20056;-9
2021/10/20 06:09:05;;;;;;;3.72;2.63;;;21.10;51.70;;;24.85;34.68;100140.75;5095470;28;20056;-9
2021/10/20 06:11:30;;;;;;;4.25;3.03;;;21.10;51.70;;;24.84;34.78;100131.91;5095723;28;20545;-6
2021/10/20 06:13:56;;;;;;;3.50;2.63;;;21.10;51.70;;;24.85;34.89;100133.56;5095402;28;20075;-7
2021/10/20 06:16:22;;;;;;;4.45;3.03;;;21.10;51.70;;;24.87;34.74;100136.09;5095113;28;20056;-7
2021/10/20 06:18:48;;;;;;;3.90;3.20;;;21.10;51.70;;;24.87;34.86;100131.59;5095091;28;20059;-6
2021/10/20 06:21:14;;;;;;;4.18;2.90;;;21.10;51.70;;;24.85;34.80;100116.69;5095350;28;20423;-7
2021/10/20 06:23:39;;;;;;;3.05;2.65;;;21.10;51.80;;;24.85;34.76;100117.53;5095904;28;20052;-7
2021/10/20 06:26:05;;;;;;;4.68;2.83;;;21.10;51.80;;;24.88;34.87;100119.94;5095347;28;20052;-7
2021/10/20 06:28:31;;;;;;;3.42;2.80;;;21.10;51.80;;;-147.20;100.00;58430.41;5094143;28;20044;-6
2021/10/20 06:30:57;;;;;;;3.08;2.78;;;21.10;51.80;;;-147.20;100.00;58430.41;5093950;28;20475;-7
2021/10/20 06:33:24;;;;;;;3.35;2.70;;;21.10;51.80;;;-147.20;34.92;100120.91;5095274;28;20052;-7
2021/10/20 06:35:52;;;;;;;3.00;2.70;;;21.10;51.80;;;24.87;34.92;100122.75;5095095;28;20044;-6
2021/10/20 06:38:17;;;;;;;3.22;2.53;;;21.10;51.70;;;24.88;34.88;100119.09;5094832;28;20488;-7
2021/10/20 06:40:43;;;;;;;2.70;2.50;;;21.10;51.70;;;24.90;34.84;100111.78;5076485;28;20064;-7
2021/10/20 06:43:09;;;;;;;4.53;2.97;;;21.10;51.70;;;24.88;34.79;100108.41;5095010;28;20483;-7
2021/10/20 06:45:35;;;;;;;5.38;2.70;;;21.10;51.70;;;24.90;34.92;100107.25;5094759;28;20052;-7
2021/10/20 06:48:01;;;;;;;2.95;2.65;;;21.10;51.70;;;24.88;34.78;100097.69;5094629;28;20044;-7
2021/10/20 06:50:27;;;;;;;3.60;3.08;;;21.10;51.70;;;24.89;34.93;100094.88;5094843;28;20076;-6
2021/10/20 06:52:52;;;;;;;3.72;2.90;;;21.10;52.20;;;24.92;34.99;100093.75;5094817;28;20047;-6
2021/10/20 06:55:18;;;;;;;3.75;3.30;;;21.10;51.70;;;24.88;34.79;100090.50;5095014;28;20078;-6
2021/10/20 06:57:44;;;;;;;3.47;2.92;;;21.10;51.70;;;24.93;34.89;100095.44;5093608;28;20047;-7
2021/10/20 07:00:11;;;;;;;3.25;2.95;;;21.10;51.80;;;24.90;34.84;100095.72;5094858;28;20044;-6
2021/10/20 07:02:37;;;;;;;3.17;2.42;;;21.10;51.70;;;24.92;34.93;100088.41;5094667;28;20051;-7
2021/10/20 07:05:04;;;;;;;3.30;2.90;;;21.20;51.80;;;24.93;34.86;100098.97;5094500;28;20048;-7
2021/10/20 07:07:30;;;;;;;3.05;2.70;;;21.10;51.60;;;24.94;34.89;100089.97;5094443;28;20052;-7
2021/10/20 07:09:56;;;;;;;3.55;2.95;;;21.10;51.60;;;24.93;34.82;100072.22;5094991;28;20056;-6
2021/10/20 07:12:23;;;;;;;3.38;2.70;;;21.20;51.60;;;24.94;34.83;100071.25;5094514;28;20044;-6
2021/10/20 07:14:48;;;;;;;3.10;2.72;;;21.20;51.50;;;24.95;34.84;100078.25;5094524;28;20044;-6
2021/10/20 07:17:14;;;;;;;3.42;2.60;;;21.20;51.40;;;24.95;34.69;100078.25;5094168;28;20377;-6
2021/10/20 07:19:40;;;;;;;3.40;2.92;;;21.20;51.50;;;24.94;34.79;100068.56;5094754;28;20547;-7
2021/10/20 07:22:07;;;;;;;5.38;3.42;;;21.20;51.40;;;24.95;34.70;100051.53;5094408;28;20040;-6
2021/10/20 07:24:34;;;;;;;5.28;2.80;;;21.20;51.40;;;24.95;34.79;100043.50;5076239;28;20093;-6
2021/10/20 07:27:00;;;;;;;3.45;2.70;;;21.20;51.50;;;24.96;34.74;100044.38;5094975;28;20434;-7
2021/10/20 07:29:25;;;;;;;3.20;2.90;;;21.20;51.50;;;24.96;34.75;100053.22;5094126;28;20051;-7
2021/10/20 07:31:51;;;;;;;3.40;3.10;;;21.20;51.50;;;24.97;34.62;100056.72;5094147;28;20075;-7
2021/10/20 07:34:17;;;;;;;4.43;3.00;;;21.20;51.50;;;24.99;34.77;100051.25;5094200;28;20051;-7
2021/10/20 07:36:44;;;;;;;3.55;2.72;;;21.20;51.40;;;24.99;34.65;100044.06;5093997;28;20036;-7
2021/10/20 07:39:11;;;;;;;3.17;2.88;;;21.20;51.40;;;25.01;34.83;100043.91;5094067;28;20135;-6
2021/10/20 07:41:37;;;;;;;3.75;2.38;;;21.20;51.40;;;25.02;34.54;100035.75;5094020;28;20055;-7
2021/10/20 07:44:03;;;;;;;3.17;2.92;;;21.20;51.40;;;25.03;34.63;100028.59;5094065;28;20044;-7
2021/10/20 07:46:29;;;;;;;3.40;2.83;;;21.30;51.40;;;25.02;34.57;100042.94;5075801;28;20044;-9
2021/10/20 07:48:54;;;;;;;3.28;2.95;;;21.20;51.50;;;25.03;34.61;100032.09;5093972;28;20055;-9
2021/10/20 07:51:20;;;;;;;3.78;2.70;;;21.20;51.50;;;25.05;34.71;100022.09;5094206;28;20063;-10
2021/10/20 07:53:46;;;;;;;3.30;3.00;;;21.20;51.50;;;25.04;34.55;100024.91;5093908;28;20396;-9
2021/10/20 07:56:12;;;;;;;3.22;2.92;;;21.30;51.40;;;25.06;34.70;100013.09;5075896;28;20044;-9
2021/10/20 07:58:38;;;;;;;3.30;3.00;;;21.30;51.30;;;25.04;34.68;100014.22;5093719;28;20377;-9
2021/10/20 08:01:03;;;;;;;3.25;2.95;;;21.30;51.30;;;25.06;34.62;100021.13;5093734;28;20403;-9
2021/10/20 08:03:29;;;;;;;3.30;3.00;;;21.40;51.30;;;25.08;34.70;100010.28;5093698;28;20044;-9
2021/10/20 08:05:55;;;;;;;3.58;2.90;;;21.30;51.20;;;25.08;34.58;100008.44;5093691;28;20051;-9
2021/10/20 08:08:22;;;;;;;4.65;3.35;;;21.40;51.10;;;25.07;34.57;100003.25;5093268;28;20044;-9
2021/10/20 08:10:48;;;;;;;5.90;3.47;;;21.40;51.20;;;25.10;34.56;99989.59;5093751;28;20040;-9
2021/10/20 08:13:13;;;;;;;5.22;2.80;;;21.40;51.20;;;25.09;34.64;99977.19;5093546;28;20104;-9
2021/10/20 08:15:42;;;;;;;3.17;2.88;;;21.30;51.20;;;25.09;34.77;99980.72;5093962;28;20526;-9
2021/10/20 08:18:09;;;;;;;3.97;3.10;;;21.40;51.20;;;25.08;34.72;99967.50;5093505;28;20059;-9
2021/10/20 08:20:37;;;;;;;5.10;3.00;;;21.40;51.10;;;25.10;34.62;99962.84;5093350;28;20051;-9
2021/10/20 08:23:05;;;;;;;3.13;2.70;;;21.40;51.10;;;25.11;34.56;99952.00;5093631;28;20105;-9
2021/10/20 08:25:34;;;;;;;3.92;2.85;;;21.40;51.10;;;25.10;34.57;99960.16;5092049;28;20048;-9
2021/10/20 08:28:01;;;;;;;3.20;2.90;;;21.40;51.60;;;25.11;34.57;99959.19;5074236;28;20044;-9
2021/10/20 08:30:27;;;;;;;3.03;2.75;;;21.40;51.00;;;25.13;34.66;99971.41;5093028;28;20067;-8
2021/10/20 08:32:56;;;;;;;4.55;3.38;;;21.40;51.10;;;25.12;34.64;99961.69;5075200;28;20087;-9
2021/10/20 08:35:22;;;;;;;5.10;3.67;;;21.40;51.10;;;25.11;34.59;99949.31;5093175;28;20462;-9
2021/10/20 08:37:56;;;;;;;5.95;3.38;;;21.40;51.00;;;25.15;34.38;99961.41;5093726;28;20048;-9
2021/10/20 08:40:32;;;;;;;4.13;3.05;;;21.40;51.00;;;25.13;34.64;99959.88;5093279;28;20055;-9
2021/10/20 08:42:59;;;;;;;4.80;3.30;;;21.40;51.00;;;25.17;34.46;99953.25;5093149;28;20442;-9
2021/10/20 08:45:25;;;;;;;3.22;2.92;;;21.50;50.90;;;25.18;34.45;99952.25;5093161;28;20558;-9
2021/10/20 08:47:52;;;;;;;3.72;2.95;;;21.50;51.00;;;25.17;34.46;99942.53;5093351;28;20046;-9
2021/10/20 08:50:30;;;;;;;6.75;3.53;;;21.40;51.00;;;25.19;34.43;99934.38;5093021;28;20044;-9
2021/10/20 08:52:56;;;;;;;4.15;3.30;;;21.50;51.00;;;25.17;34.46;99913.13;5093126;28;20066;-9
2021/10/20 08:55:22;;;;;;;3.97;3.05;;;21.40;50.90;;;25.19;34.52;99915.66;5092951;28;20131;-9
2021/10/20 08:57:50;;;;;;;4.53;3.55;;;21.50;51.00;;;25.22;34.38;99901.97;5092993;28;20087;-9
2021/10/20 09:00:18;;;;;;;6.38;3.80;;;21.50;51.00;;;25.23;34.42;99901.00;5092838;28;20138;-9
2021/10/20 09:02:47;;;;;;;6.03;3.50;;;21.50;51.10;;;25.22;34.39;99899.31;5092828;28;20078;-8
2021/10/20 09:05:17;;;;;;;6.25;3.10;;;21.40;51.00;;;25.21;34.37;99881.56;5092803;28;20496;-7
2021/10/20 09:07:47;;;;;;;5.18;3.53;;;21.40;51.00;;;25.23;34.37;99885.78;5092657;28;20500;-7
2021/10/20 09:10:14;;;;;;;8.57;3.73;;;21.50;51.00;;;25.23;34.43;99877.75;5092749;28;20048;-8
2021/10/20 09:12:41;;;;;;;4.88;3.83;;;21.40;51.10;;;25.23;34.39;99864.38;5093101;28;20106;-7
2021/10/20 09:15:18;;;;;;;6.47;3.33;;;21.40;51.20;;;25.20;34.37;99862.00;5091409;28;20044;-7
2021/10/20 09:17:47;;;;;;;5.22;3.58;;;21.50;51.20;;;25.24;34.62;99862.53;5092454;28;20089;-8
2021/10/20 09:20:17;;;;;;;4.70;3.38;;;21.40;51.10;;;25.22;34.29;99857.34;5092035;28;20040;-7
2021/10/20 09:23:12;;;;;;;4.97;3.53;;;21.40;51.00;;;25.26;34.45;99844.50;5092682;28;20097;-8
2021/10/20 09:25:57;;;;;;;4.95;3.28;;;21.40;51.00;;;25.23;34.23;99839.47;5092422;28;20407;-7
2021/10/20 09:28:31;;;;;;;4.40;3.20;;;21.40;50.90;;;25.21;34.37;99847.66;5092964;28;20050;-7
2021/10/20 09:31:01;;;;;;;4.85;3.40;;;21.40;51.00;;;25.21;34.50;99857.47;5092898;28;20052;-7
2021/10/20 09:33:39;;;;;;;3.93;3.23;;;21.40;51.00;;;25.24;34.46;99875.91;5092652;28;20055;-8
2021/10/20 09:36:14;;;;;;;4.95;4.00;;;21.50;51.00;;;25.23;34.40;99879.59;5092442;28;20290;-7
2021/10/20 09:38:49;;;;;;;6.65;3.65;;;21.40;51.10;;;25.20;34.45;99871.88;5089461;28;20040;-7
2021/10/20 09:41:16;;;;;;;4.60;3.75;;;21.40;51.00;;;25.21;34.32;99861.03;5092261;28;20048;-8
2021/10/20 09:43:52;;;;;;;6.28;4.03;;;21.40;51.00;;;25.18;34.43;99858.63;5092340;28;20048;-8
2021/10/20 09:46:32;;;;;;;5.13;3.70;;;21.40;51.00;;;25.21;34.45;99863.69;5092260;28;20090;-8
2021/10/20 09:49:12;;;;;;;6.50;3.28;;;21.40;51.10;;;25.18;34.45;99847.94;5092519;28;20533;-7
2021/10/20 09:51:38;;;;;;;4.72;3.78;;;21.40;51.00;;;25.21;34.33;99846.78;5092637;28;20044;-7
2021/10/20 09:54:25;;;;;;;6.32;3.67;;;21.40;51.10;;;25.22;34.41;99848.47;5091896;28;20113;-8
2021/10/20 09:56:57;;;;;;;4.50;3.45;;;21.40;51.00;;;25.23;34.37;99839.47;5091984;28;20101;-9
2021/10/20 09:59:28;;;;;;;5.25;4.00;;;21.40;50.90;;;25.19;34.24;99812.16;5092388;28;20040;-7
2021/10/20 10:01:54;;;;;;;6.75;3.60;;;21.50;50.90;;;25.23;34.42;99820.75;5092480;28;20048;-8
2021/10/20 10:04:21;;;;;;;5.78;3.80;;;21.50;50.90;;;25.22;34.33;99805.69;5092020;28;20122;-8
2021/10/20 10:06:49;;;;;;;4.40;3.65;;;21.40;50.90;;;25.22;34.29;99813.69;5092005;28;20052;-8
2021/10/20 10:09:16;;;;;;;6.03;3.60;;;21.50;50.90;;;25.21;34.34;99809.31;5090754;28;20062;-8
2021/10/20 10:11:50;;;;;;;5.22;3.78;;;21.50;50.80;;;25.25;34.21;99794.69;5091504;28;20105;-8
2021/10/20 10:14:19;;;;;;;5.22;3.40;;;21.50;51.20;;;25.25;34.32;99792.00;5090085;28;20105;-12
2021/10/20 10:16:46;;;;;;;5.55;4.03;;;21.50;50.70;;;25.26;34.35;99783.88;5072485;28;20044;-8
2021/10/20 10:19:12;;;;;;;6.50;4.50;;;21.50;50.70;;;25.25;34.22;99778.63;5073694;28;20040;-8